sensor_id;sensor_type;location;lat;lon;timestamp;temperature;humidity
3921;DHT22;1975;49.356;6.816;2023-05-29T00:01:55;18.90;99.90
3921;DHT22;1975;49.356;6.816;2023-05-29T00:04:20;18.90;99.90
3921;DHT22;1975;49.356;6.816;2023-05-29T00:06:46;18.90;99.90
3921;DHT22;1975;49.356;6.816;2023-05-29T00:09:12;18.90;99.90
3921;DHT22;1975;49.356;6.816;2023-05-29T00:11:37;18.80;99.90
3921;DHT22;1975;49.356;6.816;2023-05-29T00:14:03;18.80;99.90
3921;DHT22;1975;49.356;6.816;2023-05-29T00:16:28;18.80;99.90
3921;DHT22;1975;49.356;6.816;2023-05-29T00:18:55;18.80;99.90
3921;DHT22;1975;49.356;6.816;2023-05-29T00:21:20;18.80;99.90
3921;DHT22;1975;49.356;6.816;2023-05-29T00:23:47;18.70;99.90
3921;DHT22;1975;49.356;6.816;2023-05-29T00:26:12;18.70;99.90
3921;DHT22;1975;49.356;6.816;2023-05-29T00:28:39;18.70;99.90
3921;DHT22;1975;49.356;6.816;2023-05-29T00:31:04;18.70;99.90
3921;DHT22;1975;49.356;6.816;2023-05-29T00:33:30;18.60;99.90
3921;DHT22;1975;49.356;6.816;2023-05-29T00:35:55;18.60;99.90
3921;DHT22;1975;49.356;6.816;2023-05-29T00:38:21;18.60;99.90
3921;DHT22;1975;49.356;6.816;2023-05-29T00:40:46;18.60;99.90
3921;DHT22;1975;49.356;6.816;2023-05-29T00:43:12;18.60;99.90
3921;DHT22;1975;49.356;6.816;2023-05-29T00:45:37;18.50;99.90
3921;DHT22;1975;49.356;6.816;2023-05-29T00:48:03;18.50;99.90
3921;DHT22;1975;49.356;6.816;2023-05-29T00:50:29;18.50;99.90
3921;DHT22;1975;49.356;6.816;2023-05-29T00:52:55;18.50;99.90
3921;DHT22;1975;49.356;6.816;2023-05-29T00:55:20;18.50;99.90
3921;DHT22;1975;49.356;6.816;2023-05-29T00:57:46;18.40;99.90
3921;DHT22;1975;49.356;6.816;2023-05-29T01:00:13;18.40;99.90
3921;DHT22;1975;49.356;6.816;2023-05-29T01:02:39;18.40;99.90
3921;DHT22;1975;49.356;6.816;2023-05-29T01:05:06;18.40;99.90
3921;DHT22;1975;49.356;6.816;2023-05-29T01:07:32;18.40;99.90
3921;DHT22;1975;49.356;6.816;2023-05-29T01:09:57;18.30;99.90
3921;DHT22;1975;49.356;6.816;2023-05-29T01:12:26;18.30;99.90
3921;DHT22;1975;49.356;6.816;2023-05-29T01:17:24;18.30;99.90
3921;DHT22;1975;49.356;6.816;2023-05-29T01:27:24;18.20;99.90
3921;DHT22;1975;49.356;6.816;2023-05-29T01:29:50;18.20;99.90
3921;DHT22;1975;49.356;6.816;2023-05-29T01:32:16;18.20;99.90
3921;DHT22;1975;49.356;6.816;2023-05-29T01:34:42;18.10;99.90
3921;DHT22;1975;49.356;6.816;2023-05-29T01:37:07;18.10;99.90
3921;DHT22;1975;49.356;6.816;2023-05-29T01:39:34;18.10;99.90
3921;DHT22;1975;49.356;6.816;2023-05-29T01:41:59;18.10;99.90
3921;DHT22;1975;49.356;6.816;2023-05-29T01:44:25;18.00;99.90
3921;DHT22;1975;49.356;6.816;2023-05-29T01:46:51;18.00;99.90
3921;DHT22;1975;49.356;6.816;2023-05-29T01:49:17;18.00;99.90
3921;DHT22;1975;49.356;6.816;2023-05-29T01:51:43;18.00;99.90
3921;DHT22;1975;49.356;6.816;2023-05-29T01:54:09;18.00;99.90
3921;DHT22;1975;49.356;6.816;2023-05-29T01:56:34;18.00;99.90
3921;DHT22;1975;49.356;6.816;2023-05-29T01:59:01;18.00;99.90
3921;DHT22;1975;49.356;6.816;2023-05-29T02:01:27;18.00;99.90
3921;DHT22;1975;49.356;6.816;2023-05-29T02:03:53;18.00;99.90
3921;DHT22;1975;49.356;6.816;2023-05-29T02:06:18;17.90;99.90
3921;DHT22;1975;49.356;6.816;2023-05-29T02:08:44;17.90;99.90
3921;DHT22;1975;49.356;6.816;2023-05-29T02:11:10;17.90;99.90
3921;DHT22;1975;49.356;6.816;2023-05-29T02:13:35;17.80;99.90
3921;DHT22;1975;49.356;6.816;2023-05-29T02:16:01;17.80;99.90
3921;DHT22;1975;49.356;6.816;2023-05-29T02:18:26;17.80;99.90
3921;DHT22;1975;49.356;6.816;2023-05-29T02:20:51;17.80;99.90
3921;DHT22;1975;49.356;6.816;2023-05-29T02:23:17;17.80;99.90
3921;DHT22;1975;49.356;6.816;2023-05-29T02:25:44;17.70;99.90
3921;DHT22;1975;49.356;6.816;2023-05-29T02:28:10;17.70;99.90
3921;DHT22;1975;49.356;6.816;2023-05-29T02:30:35;17.70;99.90
3921;DHT22;1975;49.356;6.816;2023-05-29T02:33:01;17.70;99.90
3921;DHT22;1975;49.356;6.816;2023-05-29T02:35:27;17.70;99.90
3921;DHT22;1975;49.356;6.816;2023-05-29T02:37:52;17.70;99.90
3921;DHT22;1975;49.356;6.816;2023-05-29T02:40:18;17.70;99.90
3921;DHT22;1975;49.356;6.816;2023-05-29T02:42:44;17.60;99.90
3921;DHT22;1975;49.356;6.816;2023-05-29T02:45:09;17.60;99.90
3921;DHT22;1975;49.356;6.816;2023-05-29T02:47:35;17.60;99.90
3921;DHT22;1975;49.356;6.816;2023-05-29T02:50:01;17.60;99.90
3921;DHT22;1975;49.356;6.816;2023-05-29T02:52:27;17.60;99.90
3921;DHT22;1975;49.356;6.816;2023-05-29T02:54:53;17.60;99.90
3921;DHT22;1975;49.356;6.816;2023-05-29T02:57:20;17.60;99.90
3921;DHT22;1975;49.356;6.816;2023-05-29T02:59:45;17.60;99.90
3921;DHT22;1975;49.356;6.816;2023-05-29T03:02:11;17.50;99.90
3921;DHT22;1975;49.356;6.816;2023-05-29T03:04:36;17.50;99.90
3921;DHT22;1975;49.356;6.816;2023-05-29T03:07:02;17.50;99.90
3921;DHT22;1975;49.356;6.816;2023-05-29T03:09:27;17.50;99.90
3921;DHT22;1975;49.356;6.816;2023-05-29T03:11:53;17.50;99.90
3921;DHT22;1975;49.356;6.816;2023-05-29T03:14:18;17.50;99.90
3921;DHT22;1975;49.356;6.816;2023-05-29T03:16:44;17.40;99.90
3921;DHT22;1975;49.356;6.816;2023-05-29T03:19:10;17.40;99.90
3921;DHT22;1975;49.356;6.816;2023-05-29T03:21:35;17.40;99.90
3921;DHT22;1975;49.356;6.816;2023-05-29T03:24:01;17.40;99.90
3921;DHT22;1975;49.356;6.816;2023-05-29T03:26:28;17.40;99.90
3921;DHT22;1975;49.356;6.816;2023-05-29T03:28:53;17.30;99.90
3921;DHT22;1975;49.356;6.816;2023-05-29T03:31:19;17.30;99.90
3921;DHT22;1975;49.356;6.816;2023-05-29T03:33:44;17.30;99.90
3921;DHT22;1975;49.356;6.816;2023-05-29T03:36:10;17.30;99.90
3921;DHT22;1975;49.356;6.816;2023-05-29T03:38:36;17.30;99.90
3921;DHT22;1975;49.356;6.816;2023-05-29T03:41:01;17.30;99.90
3921;DHT22;1975;49.356;6.816;2023-05-29T03:43:27;17.30;99.90
3921;DHT22;1975;49.356;6.816;2023-05-29T03:45:52;17.20;99.90
3921;DHT22;1975;49.356;6.816;2023-05-29T03:48:18;17.20;99.90
3921;DHT22;1975;49.356;6.816;2023-05-29T03:50:44;17.20;99.90
3921;DHT22;1975;49.356;6.816;2023-05-29T03:53:09;17.20;99.90
3921;DHT22;1975;49.356;6.816;2023-05-29T03:55:35;17.20;99.90
3921;DHT22;1975;49.356;6.816;2023-05-29T03:58:01;17.20;99.90
3921;DHT22;1975;49.356;6.816;2023-05-29T04:00:26;17.10;99.90
3921;DHT22;1975;49.356;6.816;2023-05-29T04:02:52;17.10;99.90
3921;DHT22;1975;49.356;6.816;2023-05-29T04:05:17;17.10;99.90
3921;DHT22;1975;49.356;6.816;2023-05-29T04:07:43;17.10;99.90
3921;DHT22;1975;49.356;6.816;2023-05-29T04:10:08;17.10;99.90
3921;DHT22;1975;49.356;6.816;2023-05-29T04:12:34;17.10;99.90
3921;DHT22;1975;49.356;6.816;2023-05-29T04:14:59;17.10;99.90
3921;DHT22;1975;49.356;6.816;2023-05-29T04:17:25;17.10;99.90
3921;DHT22;1975;49.356;6.816;2023-05-29T04:19:51;17.10;99.90
3921;DHT22;1975;49.356;6.816;2023-05-29T04:22:16;17.10;99.90
3921;DHT22;1975;49.356;6.816;2023-05-29T04:24:42;17.10;99.90
3921;DHT22;1975;49.356;6.816;2023-05-29T04:27:08;17.10;99.90
3921;DHT22;1975;49.356;6.816;2023-05-29T04:29:34;17.10;99.90
3921;DHT22;1975;49.356;6.816;2023-05-29T04:32:00;17.10;99.90
3921;DHT22;1975;49.356;6.816;2023-05-29T04:34:28;17.10;99.90
3921;DHT22;1975;49.356;6.816;2023-05-29T04:36:56;17.00;99.90
3921;DHT22;1975;49.356;6.816;2023-05-29T04:39:23;17.10;99.90
3921;DHT22;1975;49.356;6.816;2023-05-29T04:41:49;17.10;99.90
3921;DHT22;1975;49.356;6.816;2023-05-29T04:44:15;17.00;99.90
3921;DHT22;1975;49.356;6.816;2023-05-29T04:46:40;17.10;99.90
3921;DHT22;1975;49.356;6.816;2023-05-29T04:49:09;17.10;99.90
3921;DHT22;1975;49.356;6.816;2023-05-29T04:51:35;17.10;99.90
3921;DHT22;1975;49.356;6.816;2023-05-29T04:54:01;17.10;99.90
3921;DHT22;1975;49.356;6.816;2023-05-29T04:56:27;17.20;99.90
3921;DHT22;1975;49.356;6.816;2023-05-29T04:58:53;17.10;99.90
3921;DHT22;1975;49.356;6.816;2023-05-29T05:01:18;17.20;99.90
3921;DHT22;1975;49.356;6.816;2023-05-29T05:03:44;17.20;99.90
3921;DHT22;1975;49.356;6.816;2023-05-29T05:06:10;17.20;99.90
3921;DHT22;1975;49.356;6.816;2023-05-29T05:08:36;17.20;99.90
3921;DHT22;1975;49.356;6.816;2023-05-29T05:11:01;17.30;99.90
3921;DHT22;1975;49.356;6.816;2023-05-29T05:13:27;17.30;99.90
3921;DHT22;1975;49.356;6.816;2023-05-29T05:15:53;17.30;99.90
3921;DHT22;1975;49.356;6.816;2023-05-29T05:18:18;17.40;99.90
3921;DHT22;1975;49.356;6.816;2023-05-29T05:20:44;17.40;99.90
3921;DHT22;1975;49.356;6.816;2023-05-29T05:23:10;17.40;99.90
3921;DHT22;1975;49.356;6.816;2023-05-29T05:25:36;17.50;99.90
3921;DHT22;1975;49.356;6.816;2023-05-29T05:28:04;17.50;99.90
3921;DHT22;1975;49.356;6.816;2023-05-29T05:30:29;17.60;99.90
3921;DHT22;1975;49.356;6.816;2023-05-29T05:32:55;17.60;99.90
3921;DHT22;1975;49.356;6.816;2023-05-29T05:35:21;17.60;99.90
3921;DHT22;1975;49.356;6.816;2023-05-29T05:37:46;17.60;99.90
3921;DHT22;1975;49.356;6.816;2023-05-29T05:40:12;17.70;99.90
3921;DHT22;1975;49.356;6.816;2023-05-29T05:42:37;17.70;99.90
3921;DHT22;1975;49.356;6.816;2023-05-29T05:45:03;17.70;99.90
3921;DHT22;1975;49.356;6.816;2023-05-29T05:47:29;17.70;99.90
3921;DHT22;1975;49.356;6.816;2023-05-29T05:49:55;17.70;99.90
3921;DHT22;1975;49.356;6.816;2023-05-29T05:52:21;17.70;99.90
3921;DHT22;1975;49.356;6.816;2023-05-29T05:54:46;17.70;99.90
3921;DHT22;1975;49.356;6.816;2023-05-29T05:57:12;17.70;99.90
3921;DHT22;1975;49.356;6.816;2023-05-29T05:59:37;17.70;99.90
3921;DHT22;1975;49.356;6.816;2023-05-29T06:02:03;17.70;99.90
3921;DHT22;1975;49.356;6.816;2023-05-29T06:04:29;17.80;99.90
3921;DHT22;1975;49.356;6.816;2023-05-29T06:06:54;17.80;99.90
3921;DHT22;1975;49.356;6.816;2023-05-29T06:09:20;17.80;99.90
3921;DHT22;1975;49.356;6.816;2023-05-29T06:11:46;17.80;99.90
3921;DHT22;1975;49.356;6.816;2023-05-29T06:14:11;17.80;99.90
3921;DHT22;1975;49.356;6.816;2023-05-29T06:16:37;17.80;99.90
3921;DHT22;1975;49.356;6.816;2023-05-29T06:19:02;17.90;99.90
3921;DHT22;1975;49.356;6.816;2023-05-29T06:21:29;17.90;99.90
3921;DHT22;1975;49.356;6.816;2023-05-29T06:23:55;17.90;99.90
3921;DHT22;1975;49.356;6.816;2023-05-29T06:26:21;17.90;99.90
3921;DHT22;1975;49.356;6.816;2023-05-29T06:28:46;17.90;99.90
3921;DHT22;1975;49.356;6.816;2023-05-29T06:31:11;17.90;99.90
3921;DHT22;1975;49.356;6.816;2023-05-29T06:33:37;18.00;99.90
3921;DHT22;1975;49.356;6.816;2023-05-29T06:36:03;18.00;99.90
3921;DHT22;1975;49.356;6.816;2023-05-29T06:38:28;18.00;99.90
3921;DHT22;1975;49.356;6.816;2023-05-29T06:40:54;18.00;99.90
3921;DHT22;1975;49.356;6.816;2023-05-29T06:43:19;18.00;99.90
3921;DHT22;1975;49.356;6.816;2023-05-29T06:45:45;18.10;99.90
3921;DHT22;1975;49.356;6.816;2023-05-29T06:48:10;18.10;99.90
3921;DHT22;1975;49.356;6.816;2023-05-29T06:50:36;18.10;99.90
3921;DHT22;1975;49.356;6.816;2023-05-29T06:53:01;18.20;99.90
3921;DHT22;1975;49.356;6.816;2023-05-29T06:55:27;18.20;99.90
3921;DHT22;1975;49.356;6.816;2023-05-29T06:57:52;18.20;99.90
3921;DHT22;1975;49.356;6.816;2023-05-29T07:00:18;18.30;99.90
3921;DHT22;1975;49.356;6.816;2023-05-29T07:02:43;18.30;99.90
3921;DHT22;1975;49.356;6.816;2023-05-29T07:05:09;18.30;99.90
3921;DHT22;1975;49.356;6.816;2023-05-29T07:07:34;18.40;99.90
3921;DHT22;1975;49.356;6.816;2023-05-29T07:10:00;18.40;99.90
3921;DHT22;1975;49.356;6.816;2023-05-29T07:12:26;18.40;99.90
3921;DHT22;1975;49.356;6.816;2023-05-29T07:14:51;18.40;99.90
3921;DHT22;1975;49.356;6.816;2023-05-29T07:17:17;18.50;99.90
3921;DHT22;1975;49.356;6.816;2023-05-29T07:19:42;18.50;99.90
3921;DHT22;1975;49.356;6.816;2023-05-29T07:22:08;18.50;99.90
3921;DHT22;1975;49.356;6.816;2023-05-29T07:24:33;18.50;99.90
3921;DHT22;1975;49.356;6.816;2023-05-29T07:26:59;18.60;99.90
3921;DHT22;1975;49.356;6.816;2023-05-29T07:29:24;18.60;99.90
3921;DHT22;1975;49.356;6.816;2023-05-29T07:31:50;18.60;99.90
3921;DHT22;1975;49.356;6.816;2023-05-29T07:34:16;18.70;99.90
3921;DHT22;1975;49.356;6.816;2023-05-29T07:36:58;18.70;99.90
3921;DHT22;1975;49.356;6.816;2023-05-29T07:39:25;18.70;99.90
3921;DHT22;1975;49.356;6.816;2023-05-29T07:41:51;18.70;99.90
3921;DHT22;1975;49.356;6.816;2023-05-29T07:44:16;18.70;99.90
3921;DHT22;1975;49.356;6.816;2023-05-29T07:46:42;18.80;99.90
3921;DHT22;1975;49.356;6.816;2023-05-29T07:49:07;18.70;99.90
3921;DHT22;1975;49.356;6.816;2023-05-29T07:51:33;18.70;99.90
3921;DHT22;1975;49.356;6.816;2023-05-29T07:53:58;18.80;99.90
3921;DHT22;1975;49.356;6.816;2023-05-29T07:56:23;18.90;99.90
3921;DHT22;1975;49.356;6.816;2023-05-29T07:58:50;18.90;99.90
3921;DHT22;1975;49.356;6.816;2023-05-29T08:01:18;18.90;99.90
3921;DHT22;1975;49.356;6.816;2023-05-29T08:03:44;18.90;99.90
3921;DHT22;1975;49.356;6.816;2023-05-29T08:06:10;18.90;99.90
3921;DHT22;1975;49.356;6.816;2023-05-29T08:08:35;18.90;99.90
3921;DHT22;1975;49.356;6.816;2023-05-29T08:11:01;19.00;99.90
3921;DHT22;1975;49.356;6.816;2023-05-29T08:13:26;19.00;99.90
3921;DHT22;1975;49.356;6.816;2023-05-29T08:15:52;19.00;99.90
3921;DHT22;1975;49.356;6.816;2023-05-29T08:18:18;19.00;99.90
3921;DHT22;1975;49.356;6.816;2023-05-29T08:20:43;19.10;99.90
3921;DHT22;1975;49.356;6.816;2023-05-29T08:23:10;19.10;99.90
3921;DHT22;1975;49.356;6.816;2023-05-29T08:25:35;19.20;99.90
3921;DHT22;1975;49.356;6.816;2023-05-29T08:28:01;19.20;99.90
3921;DHT22;1975;49.356;6.816;2023-05-29T08:30:26;19.20;99.90
3921;DHT22;1975;49.356;6.816;2023-05-29T08:32:52;19.20;99.90
3921;DHT22;1975;49.356;6.816;2023-05-29T08:35:17;19.20;99.90
3921;DHT22;1975;49.356;6.816;2023-05-29T08:37:43;19.20;99.90
3921;DHT22;1975;49.356;6.816;2023-05-29T08:40:09;19.20;99.90
3921;DHT22;1975;49.356;6.816;2023-05-29T08:42:45;19.30;99.90
3921;DHT22;1975;49.356;6.816;2023-05-29T08:45:12;19.40;99.90
3921;DHT22;1975;49.356;6.816;2023-05-29T08:47:38;19.40;99.90
3921;DHT22;1975;49.356;6.816;2023-05-29T08:50:05;19.40;99.90
3921;DHT22;1975;49.356;6.816;2023-05-29T08:52:33;19.50;99.90
3921;DHT22;1975;49.356;6.816;2023-05-29T08:55:03;19.50;99.90
3921;DHT22;1975;49.356;6.816;2023-05-29T08:57:29;19.50;99.90
3921;DHT22;1975;49.356;6.816;2023-05-29T08:59:56;19.40;99.90
3921;DHT22;1975;49.356;6.816;2023-05-29T09:02:21;19.40;99.90
3921;DHT22;1975;49.356;6.816;2023-05-29T09:04:47;19.30;99.90
3921;DHT22;1975;49.356;6.816;2023-05-29T09:07:18;19.50;99.90
3921;DHT22;1975;49.356;6.816;2023-05-29T09:09:48;19.50;99.90
3921;DHT22;1975;49.356;6.816;2023-05-29T09:12:16;19.70;99.90
3921;DHT22;1975;49.356;6.816;2023-05-29T09:14:42;19.90;99.90
3921;DHT22;1975;49.356;6.816;2023-05-29T09:17:10;20.10;99.90
3921;DHT22;1975;49.356;6.816;2023-05-29T09:19:36;20.20;99.90
3921;DHT22;1975;49.356;6.816;2023-05-29T09:22:04;20.30;99.90
3921;DHT22;1975;49.356;6.816;2023-05-29T09:24:30;20.30;99.90
3921;DHT22;1975;49.356;6.816;2023-05-29T09:26:58;20.40;99.90
3921;DHT22;1975;49.356;6.816;2023-05-29T09:29:24;20.50;99.90
3921;DHT22;1975;49.356;6.816;2023-05-29T09:31:50;20.60;99.90
3921;DHT22;1975;49.356;6.816;2023-05-29T09:34:15;20.40;99.90
3921;DHT22;1975;49.356;6.816;2023-05-29T09:36:41;20.70;99.90
3921;DHT22;1975;49.356;6.816;2023-05-29T09:39:07;20.70;99.90
3921;DHT22;1975;49.356;6.816;2023-05-29T09:41:43;20.70;99.90
3921;DHT22;1975;49.356;6.816;2023-05-29T09:44:13;20.90;99.90
3921;DHT22;1975;49.356;6.816;2023-05-29T09:46:42;20.90;99.90
3921;DHT22;1975;49.356;6.816;2023-05-29T09:49:14;20.90;99.90
3921;DHT22;1975;49.356;6.816;2023-05-29T09:51:40;21.00;99.90
3921;DHT22;1975;49.356;6.816;2023-05-29T09:54:17;21.10;99.90
3921;DHT22;1975;49.356;6.816;2023-05-29T09:56:43;21.00;99.90
3921;DHT22;1975;49.356;6.816;2023-05-29T09:59:13;21.10;99.90
3921;DHT22;1975;49.356;6.816;2023-05-29T10:01:42;21.30;99.90
3921;DHT22;1975;49.356;6.816;2023-05-29T10:04:12;21.30;99.90
3921;DHT22;1975;49.356;6.816;2023-05-29T10:06:38;21.30;99.90
3921;DHT22;1975;49.356;6.816;2023-05-29T10:09:06;21.20;99.90
3921;DHT22;1975;49.356;6.816;2023-05-29T10:11:35;21.20;99.90
3921;DHT22;1975;49.356;6.816;2023-05-29T10:14:02;21.30;99.90
3921;DHT22;1975;49.356;6.816;2023-05-29T10:16:28;21.30;99.90
3921;DHT22;1975;49.356;6.816;2023-05-29T10:18:58;21.40;99.90
3921;DHT22;1975;49.356;6.816;2023-05-29T10:21:27;21.40;99.90
3921;DHT22;1975;49.356;6.816;2023-05-29T10:23:53;21.50;99.90
3921;DHT22;1975;49.356;6.816;2023-05-29T10:26:26;21.50;99.90
3921;DHT22;1975;49.356;6.816;2023-05-29T10:28:55;21.50;99.50
3921;DHT22;1975;49.356;6.816;2023-05-29T10:31:28;21.50;99.90
3921;DHT22;1975;49.356;6.816;2023-05-29T10:34:00;21.60;99.90
3921;DHT22;1975;49.356;6.816;2023-05-29T10:36:28;21.70;99.90
3921;DHT22;1975;49.356;6.816;2023-05-29T10:38:55;21.80;99.90
3921;DHT22;1975;49.356;6.816;2023-05-29T10:43:49;21.80;99.90
3921;DHT22;1975;49.356;6.816;2023-05-29T10:46:14;21.80;99.80
3921;DHT22;1975;49.356;6.816;2023-05-29T10:48:41;21.80;99.80
3921;DHT22;1975;49.356;6.816;2023-05-29T10:51:07;21.80;99.40
3921;DHT22;1975;49.356;6.816;2023-05-29T10:53:35;21.80;99.40
3921;DHT22;1975;49.356;6.816;2023-05-29T10:56:07;21.80;99.60
3921;DHT22;1975;49.356;6.816;2023-05-29T10:58:33;21.80;99.80
3921;DHT22;1975;49.356;6.816;2023-05-29T11:00:59;21.80;99.90
3921;DHT22;1975;49.356;6.816;2023-05-29T11:03:25;21.80;99.90
3921;DHT22;1975;49.356;6.816;2023-05-29T11:08:42;21.90;99.90
3921;DHT22;1975;49.356;6.816;2023-05-29T11:11:14;21.90;99.90
3921;DHT22;1975;49.356;6.816;2023-05-29T11:13:40;22.00;99.90
3921;DHT22;1975;49.356;6.816;2023-05-29T11:16:10;22.00;99.90
3921;DHT22;1975;49.356;6.816;2023-05-29T11:18:44;22.10;99.60
3921;DHT22;1975;49.356;6.816;2023-05-29T11:23:55;22.20;99.90
3921;DHT22;1975;49.356;6.816;2023-05-29T11:26:22;22.20;98.80
3921;DHT22;1975;49.356;6.816;2023-05-29T11:28:48;22.20;98.90
3921;DHT22;1975;49.356;6.816;2023-05-29T11:31:14;22.30;99.90
3921;DHT22;1975;49.356;6.816;2023-05-29T11:33:40;22.30;99.20
3921;DHT22;1975;49.356;6.816;2023-05-29T11:36:08;22.20;99.90
3921;DHT22;1975;49.356;6.816;2023-05-29T11:38:34;22.30;99.90
3921;DHT22;1975;49.356;6.816;2023-05-29T11:41:01;22.40;98.90
3921;DHT22;1975;49.356;6.816;2023-05-29T11:43:27;22.30;99.20
3921;DHT22;1975;49.356;6.816;2023-05-29T11:45:52;22.40;99.80
3921;DHT22;1975;49.356;6.816;2023-05-29T11:48:17;22.30;99.80
3921;DHT22;1975;49.356;6.816;2023-05-29T11:50:43;22.40;99.60
3921;DHT22;1975;49.356;6.816;2023-05-29T11:53:09;22.50;99.30
3921;DHT22;1975;49.356;6.816;2023-05-29T11:55:34;22.50;96.70
3921;DHT22;1975;49.356;6.816;2023-05-29T11:58:01;22.50;97.50
3921;DHT22;1975;49.356;6.816;2023-05-29T12:00:30;22.50;98.50
3921;DHT22;1975;49.356;6.816;2023-05-29T12:02:57;22.40;99.80
3921;DHT22;1975;49.356;6.816;2023-05-29T12:05:23;22.50;99.70
3921;DHT22;1975;49.356;6.816;2023-05-29T12:07:49;22.50;99.40
3921;DHT22;1975;49.356;6.816;2023-05-29T12:10:16;22.60;98.50
3921;DHT22;1975;49.356;6.816;2023-05-29T12:12:42;22.70;97.60
3921;DHT22;1975;49.356;6.816;2023-05-29T12:15:11;22.60;97.30
3921;DHT22;1975;49.356;6.816;2023-05-29T12:17:37;22.70;97.90
3921;DHT22;1975;49.356;6.816;2023-05-29T12:20:03;22.70;98.40
3921;DHT22;1975;49.356;6.816;2023-05-29T12:22:38;22.70;98.80
3921;DHT22;1975;49.356;6.816;2023-05-29T12:25:11;22.80;97.50
3921;DHT22;1975;49.356;6.816;2023-05-29T12:27:39;22.80;97.40
3921;DHT22;1975;49.356;6.816;2023-05-29T12:30:11;22.80;98.10
3921;DHT22;1975;49.356;6.816;2023-05-29T12:32:40;22.80;98.30
3921;DHT22;1975;49.356;6.816;2023-05-29T12:35:12;22.80;97.90
3921;DHT22;1975;49.356;6.816;2023-05-29T12:37:42;22.90;98.70
3921;DHT22;1975;49.356;6.816;2023-05-29T12:42:39;23.10;97.60
3921;DHT22;1975;49.356;6.816;2023-05-29T12:45:06;22.90;97.40
3921;DHT22;1975;49.356;6.816;2023-05-29T12:47:33;23.00;98.20
3921;DHT22;1975;49.356;6.816;2023-05-29T12:49:58;23.00;97.90
3921;DHT22;1975;49.356;6.816;2023-05-29T12:52:24;23.00;98.00
3921;DHT22;1975;49.356;6.816;2023-05-29T12:54:50;23.00;98.40
3921;DHT22;1975;49.356;6.816;2023-05-29T12:57:15;23.00;97.00
3921;DHT22;1975;49.356;6.816;2023-05-29T12:59:40;23.10;98.10
3921;DHT22;1975;49.356;6.816;2023-05-29T13:02:06;23.10;97.40
3921;DHT22;1975;49.356;6.816;2023-05-29T13:04:35;23.20;96.70
3921;DHT22;1975;49.356;6.816;2023-05-29T13:07:00;23.30;96.40
3921;DHT22;1975;49.356;6.816;2023-05-29T13:09:26;23.20;96.70
3921;DHT22;1975;49.356;6.816;2023-05-29T13:11:51;23.20;97.00
3921;DHT22;1975;49.356;6.816;2023-05-29T13:14:18;23.20;97.50
3921;DHT22;1975;49.356;6.816;2023-05-29T13:16:43;23.30;97.20
3921;DHT22;1975;49.356;6.816;2023-05-29T13:19:09;23.30;97.50
3921;DHT22;1975;49.356;6.816;2023-05-29T13:21:35;23.40;98.30
3921;DHT22;1975;49.356;6.816;2023-05-29T13:24:00;23.40;98.40
3921;DHT22;1975;49.356;6.816;2023-05-29T13:26:26;23.50;97.40
3921;DHT22;1975;49.356;6.816;2023-05-29T13:28:52;23.40;96.30
3921;DHT22;1975;49.356;6.816;2023-05-29T13:31:17;23.40;97.00
3921;DHT22;1975;49.356;6.816;2023-05-29T13:33:43;23.40;96.80
3921;DHT22;1975;49.356;6.816;2023-05-29T13:36:08;23.40;96.40
3921;DHT22;1975;49.356;6.816;2023-05-29T13:38:34;23.50;96.70
3921;DHT22;1975;49.356;6.816;2023-05-29T13:40:59;23.50;97.40
3921;DHT22;1975;49.356;6.816;2023-05-29T13:43:25;23.60;95.90
3921;DHT22;1975;49.356;6.816;2023-05-29T13:45:50;23.50;95.60
3921;DHT22;1975;49.356;6.816;2023-05-29T13:48:16;23.50;94.90
3921;DHT22;1975;49.356;6.816;2023-05-29T13:50:41;23.50;96.00
3921;DHT22;1975;49.356;6.816;2023-05-29T13:53:07;23.70;96.00
3921;DHT22;1975;49.356;6.816;2023-05-29T13:55:32;23.60;95.20
3921;DHT22;1975;49.356;6.816;2023-05-29T13:57:58;23.20;95.80
3921;DHT22;1975;49.356;6.816;2023-05-29T14:00:23;23.00;96.20
3921;DHT22;1975;49.356;6.816;2023-05-29T14:02:48;22.80;96.60
3921;DHT22;1975;49.356;6.816;2023-05-29T14:05:14;22.70;97.10
3921;DHT22;1975;49.356;6.816;2023-05-29T14:07:39;22.70;97.50
3921;DHT22;1975;49.356;6.816;2023-05-29T14:10:05;22.60;97.50
3921;DHT22;1975;49.356;6.816;2023-05-29T14:12:31;22.60;97.60
3921;DHT22;1975;49.356;6.816;2023-05-29T14:14:56;22.40;97.50
3921;DHT22;1975;49.356;6.816;2023-05-29T14:17:22;22.40;96.70
3921;DHT22;1975;49.356;6.816;2023-05-29T14:19:47;22.40;97.00
3921;DHT22;1975;49.356;6.816;2023-05-29T14:22:13;22.40;97.10
3921;DHT22;1975;49.356;6.816;2023-05-29T14:24:38;22.40;97.10
3921;DHT22;1975;49.356;6.816;2023-05-29T14:27:03;22.40;96.90
3921;DHT22;1975;49.356;6.816;2023-05-29T14:29:29;22.40;96.80
3921;DHT22;1975;49.356;6.816;2023-05-29T14:31:54;22.50;97.60
3921;DHT22;1975;49.356;6.816;2023-05-29T14:34:20;22.60;96.90
3921;DHT22;1975;49.356;6.816;2023-05-29T14:36:45;22.50;96.50
3921;DHT22;1975;49.356;6.816;2023-05-29T14:39:11;22.50;96.70
3921;DHT22;1975;49.356;6.816;2023-05-29T14:41:37;22.50;96.60
3921;DHT22;1975;49.356;6.816;2023-05-29T14:44:03;22.50;96.20
3921;DHT22;1975;49.356;6.816;2023-05-29T14:46:28;22.50;96.30
3921;DHT22;1975;49.356;6.816;2023-05-29T14:48:57;22.50;96.50
3921;DHT22;1975;49.356;6.816;2023-05-29T14:51:22;22.50;97.00
3921;DHT22;1975;49.356;6.816;2023-05-29T14:53:49;22.40;97.20
3921;DHT22;1975;49.356;6.816;2023-05-29T14:56:15;22.40;97.30
3921;DHT22;1975;49.356;6.816;2023-05-29T14:58:40;22.40;97.10
3921;DHT22;1975;49.356;6.816;2023-05-29T15:01:06;22.40;96.90
3921;DHT22;1975;49.356;6.816;2023-05-29T15:03:32;22.50;96.80
3921;DHT22;1975;49.356;6.816;2023-05-29T15:06:00;22.50;96.50
3921;DHT22;1975;49.356;6.816;2023-05-29T15:08:26;22.50;96.70
3921;DHT22;1975;49.356;6.816;2023-05-29T15:10:53;22.50;96.80
3921;DHT22;1975;49.356;6.816;2023-05-29T15:13:18;22.50;96.60
3921;DHT22;1975;49.356;6.816;2023-05-29T15:15:44;22.60;96.80
3921;DHT22;1975;49.356;6.816;2023-05-29T15:18:09;22.50;97.00
3921;DHT22;1975;49.356;6.816;2023-05-29T15:20:35;22.50;96.90
3921;DHT22;1975;49.356;6.816;2023-05-29T15:23:00;22.50;96.70
3921;DHT22;1975;49.356;6.816;2023-05-29T15:25:26;22.50;96.80
3921;DHT22;1975;49.356;6.816;2023-05-29T15:27:51;22.50;96.50
3921;DHT22;1975;49.356;6.816;2023-05-29T15:30:18;22.50;96.10
3921;DHT22;1975;49.356;6.816;2023-05-29T15:32:46;22.50;96.40
3921;DHT22;1975;49.356;6.816;2023-05-29T15:35:15;22.50;96.40
3921;DHT22;1975;49.356;6.816;2023-05-29T15:37:42;22.50;96.30
3921;DHT22;1975;49.356;6.816;2023-05-29T15:40:07;22.50;96.40
3921;DHT22;1975;49.356;6.816;2023-05-29T15:42:34;22.50;96.20
3921;DHT22;1975;49.356;6.816;2023-05-29T15:45:00;22.60;96.00
3921;DHT22;1975;49.356;6.816;2023-05-29T15:47:27;22.60;96.10
3921;DHT22;1975;49.356;6.816;2023-05-29T15:49:53;22.60;95.80
3921;DHT22;1975;49.356;6.816;2023-05-29T15:52:19;22.60;95.70
3921;DHT22;1975;49.356;6.816;2023-05-29T15:54:44;22.60;95.90
3921;DHT22;1975;49.356;6.816;2023-05-29T15:57:10;22.60;95.80
3921;DHT22;1975;49.356;6.816;2023-05-29T15:59:35;22.60;96.00
3921;DHT22;1975;49.356;6.816;2023-05-29T16:02:01;22.60;95.80
3921;DHT22;1975;49.356;6.816;2023-05-29T16:04:28;22.60;95.40
3921;DHT22;1975;49.356;6.816;2023-05-29T16:06:53;22.60;95.90
3921;DHT22;1975;49.356;6.816;2023-05-29T16:09:19;22.60;96.00
3921;DHT22;1975;49.356;6.816;2023-05-29T16:11:44;22.60;95.90
3921;DHT22;1975;49.356;6.816;2023-05-29T16:14:10;22.60;95.10
3921;DHT22;1975;49.356;6.816;2023-05-29T16:16:36;22.60;95.20